createdAt,value
2023-08-17T00:02:09.214Z,11.80
2023-08-17T00:04:37.405Z,11.90
2023-08-17T00:07:05.310Z,12.40
2023-08-17T00:09:34.562Z,12.60
2023-08-17T00:12:02.996Z,12.20
2023-08-17T00:14:32.329Z,12.00
2023-08-17T00:17:00.290Z,12.40
2023-08-17T00:19:29.162Z,12.20
2023-08-17T00:21:57.306Z,11.90
2023-08-17T00:24:25.351Z,11.90
2023-08-17T00:26:53.474Z,11.60
2023-08-17T00:29:23.577Z,11.90
2023-08-17T00:31:51.747Z,11.70
2023-08-17T00:34:20.328Z,12.00
2023-08-17T00:36:49.153Z,11.20
2023-08-17T00:39:17.524Z,11.10
2023-08-17T00:41:44.812Z,11.30
2023-08-17T00:44:14.134Z,11.80
2023-08-17T00:46:41.885Z,11.50
2023-08-17T00:49:10.391Z,10.70
2023-08-17T00:51:38.555Z,11.30
2023-08-17T00:54:07.814Z,11.40
2023-08-17T00:56:36.029Z,11.40
2023-08-17T00:59:03.972Z,11.00
2023-08-17T01:01:32.304Z,10.80
2023-08-17T01:04:00.413Z,11.30
2023-08-17T01:06:28.509Z,10.80
2023-08-17T01:08:57.038Z,10.60
2023-08-17T01:11:36.405Z,11.00
2023-08-17T01:14:40.936Z,10.10
2023-08-17T01:17:17.905Z,10.70
2023-08-17T01:19:47.332Z,10.30
2023-08-17T01:22:23.251Z,11.20
2023-08-17T01:24:59.051Z,10.50
2023-08-17T01:27:28.341Z,10.70
2023-08-17T01:29:55.578Z,9.90
2023-08-17T01:32:35.361Z,10.60
2023-08-17T01:35:39.372Z,11.00
2023-08-17T01:38:14.253Z,10.50
2023-08-17T01:40:45.043Z,10.40
2023-08-17T01:43:14.527Z,10.80
2023-08-17T01:45:42.980Z,10.60
2023-08-17T01:48:11.234Z,10.10
2023-08-17T01:50:41.476Z,10.40
2023-08-17T01:53:10.206Z,10.50
2023-08-17T01:55:38.485Z,10.10
2023-08-17T01:58:09.078Z,10.80
2023-08-17T02:00:37.913Z,10.40
2023-08-17T02:03:06.324Z,9.90
2023-08-17T02:05:34.271Z,9.70
2023-08-17T02:08:02.220Z,10.10
2023-08-17T02:10:31.981Z,9.80
2023-08-17T02:13:12.367Z,9.90
2023-08-17T02:15:45.244Z,10.80
2023-08-17T02:18:13.793Z,10.50
2023-08-17T02:20:41.952Z,10.20
2023-08-17T02:23:10.653Z,9.80
2023-08-17T02:25:42.648Z,10.60
2023-08-17T02:28:11.072Z,10.00
2023-08-17T02:30:38.738Z,9.60
2023-08-17T02:33:06.086Z,9.80
2023-08-17T02:35:34.130Z,9.60
2023-08-17T02:38:01.692Z,10.10
2023-08-17T02:40:29.288Z,9.90
2023-08-17T02:42:57.041Z,9.20
2023-08-17T02:45:25.291Z,9.60
2023-08-17T02:47:53.622Z,9.40
2023-08-17T02:50:21.550Z,10.20
2023-08-17T02:52:49.401Z,10.40
2023-08-17T02:55:17.435Z,9.30
2023-08-17T02:57:46.099Z,9.20
2023-08-17T03:00:14.147Z,9.70
2023-08-17T03:02:42.209Z,9.40
2023-08-17T03:05:10.529Z,9.30
2023-08-17T03:07:38.147Z,9.30
2023-08-17T03:10:06.818Z,9.20
2023-08-17T03:12:34.657Z,8.50
2023-08-17T03:15:02.747Z,8.80
2023-08-17T03:17:30.793Z,8.50
2023-08-17T03:20:01.208Z,9.20
2023-08-17T03:22:30.201Z,9.20
2023-08-17T03:24:58.990Z,9.10
2023-08-17T03:27:30.465Z,8.80
2023-08-17T03:29:57.642Z,9.90
2023-08-17T03:32:25.743Z,8.90
2023-08-17T03:34:53.522Z,8.70
2023-08-17T03:37:21.336Z,8.80
2023-08-17T03:39:49.848Z,8.70
2023-08-17T03:42:17.875Z,9.20
2023-08-17T03:44:45.797Z,8.60
2023-08-17T03:47:14.167Z,8.20
2023-08-17T03:49:43.172Z,8.70
2023-08-17T03:52:10.854Z,8.90
2023-08-17T03:54:38.799Z,8.90
2023-08-17T03:57:07.058Z,8.80
2023-08-17T03:59:37.146Z,8.80
2023-08-17T04:02:05.162Z,9.00
2023-08-17T04:04:33.908Z,8.70
2023-08-17T04:07:02.532Z,8.40
2023-08-17T04:09:32.536Z,8.60
2023-08-17T04:12:00.338Z,8.30
2023-08-17T04:14:28.387Z,8.70
2023-08-17T04:16:58.644Z,8.60
2023-08-17T04:19:25.877Z,8.40
2023-08-17T04:21:55.501Z,8.70
2023-08-17T04:24:23.711Z,8.10
2023-08-17T04:26:53.746Z,9.10
2023-08-17T04:29:21.630Z,8.80
2023-08-17T04:31:49.973Z,8.80
2023-08-17T04:34:18.603Z,8.10
2023-08-17T04:36:46.692Z,8.30
2023-08-17T04:39:15.575Z,8.50
2023-08-17T04:41:44.722Z,8.40
2023-08-17T04:44:13.946Z,8.30
2023-08-17T04:46:43.641Z,8.50
2023-08-17T04:49:11.668Z,7.90
2023-08-17T04:51:40.146Z,8.00
2023-08-17T04:54:09.028Z,8.30
2023-08-17T04:56:37.271Z,8.30
2023-08-17T04:59:06.115Z,7.80
2023-08-17T05:01:34.096Z,7.80
2023-08-17T05:04:04.542Z,7.90
2023-08-17T05:06:33.603Z,8.50
2023-08-17T05:09:02.027Z,7.90
2023-08-17T05:11:29.931Z,7.30
2023-08-17T05:13:57.952Z,7.60
2023-08-17T05:16:25.708Z,8.00
2023-08-17T05:18:52.750Z,8.30
2023-08-17T05:21:20.701Z,7.70
2023-08-17T05:23:49.462Z,7.20
2023-08-17T05:26:16.672Z,7.80
2023-08-17T05:28:46.702Z,7.40
2023-08-17T05:31:13.938Z,8.30
2023-08-17T05:33:45.223Z,8.50
2023-08-17T05:36:14.952Z,8.30
2023-08-17T05:38:43.645Z,8.40
2023-08-17T05:41:12.676Z,8.10
2023-08-17T05:43:40.553Z,7.70
2023-08-17T05:46:07.519Z,7.90
2023-08-17T05:48:35.276Z,7.90
2023-08-17T05:51:02.600Z,7.90
2023-08-17T05:53:30.985Z,7.60
2023-08-17T05:55:59.629Z,7.30
2023-08-17T05:58:30.113Z,8.00
2023-08-17T06:01:07.150Z,8.00
2023-08-17T06:03:36.329Z,7.00
2023-08-17T06:06:05.159Z,7.50
2023-08-17T06:08:33.424Z,7.10
2023-08-17T06:11:01.997Z,7.40
2023-08-17T06:13:30.625Z,7.30
2023-08-17T06:15:59.757Z,7.50
2023-08-17T06:18:27.544Z,7.30
2023-08-17T06:20:56.062Z,7.30
2023-08-17T06:23:24.344Z,8.20
2023-08-17T06:25:52.317Z,7.30
2023-08-17T06:28:20.273Z,7.00
2023-08-17T06:30:48.196Z,7.50
2023-08-17T06:33:16.209Z,7.30
2023-08-17T06:35:44.006Z,7.60
2023-08-17T06:38:16.643Z,7.00
2023-08-17T06:40:45.092Z,7.20
2023-08-17T06:43:14.364Z,7.40
2023-08-17T06:45:43.002Z,7.30
2023-08-17T06:48:10.125Z,7.40
2023-08-17T06:50:37.718Z,7.20
2023-08-17T06:53:05.894Z,6.50
2023-08-17T06:55:32.928Z,6.90
2023-08-17T06:58:00.307Z,6.80
2023-08-17T07:00:27.590Z,7.10
2023-08-17T07:02:57.834Z,6.40
2023-08-17T07:05:26.753Z,6.10
2023-08-17T07:07:57.086Z,6.50
2023-08-17T07:10:24.350Z,6.70
2023-08-17T07:12:51.495Z,7.20
2023-08-17T07:15:18.703Z,7.10
2023-08-17T07:17:45.644Z,6.90
2023-08-17T07:22:43.259Z,6.80
2023-08-17T07:25:10.763Z,6.40
2023-08-17T07:27:37.953Z,7.30
2023-08-17T07:30:05.578Z,6.80
2023-08-17T07:32:34.624Z,6.80
2023-08-17T07:35:01.648Z,6.40
2023-08-17T07:37:34.381Z,6.80
2023-08-17T07:40:06.312Z,6.30
2023-08-17T07:42:33.934Z,6.20
2023-08-17T07:45:02.831Z,6.50
2023-08-17T07:47:30.119Z,6.70
2023-08-17T07:49:59.117Z,6.50
2023-08-17T07:52:26.147Z,6.00
2023-08-17T07:54:53.168Z,6.80
2023-08-17T07:57:20.166Z,6.60
2023-08-17T07:59:47.106Z,6.80
2023-08-17T08:02:16.897Z,6.80
2023-08-17T08:04:44.574Z,6.70
2023-08-17T08:07:11.904Z,6.50
2023-08-17T08:09:38.882Z,6.60
2023-08-17T08:12:09.141Z,6.80
2023-08-17T08:14:36.935Z,6.50
2023-08-17T08:17:04.045Z,5.80
2023-08-17T08:19:34.078Z,6.80
2023-08-17T08:22:02.683Z,6.70
2023-08-17T08:24:38.102Z,6.60
2023-08-17T08:27:06.574Z,6.90
2023-08-17T08:29:34.676Z,6.30
2023-08-17T08:32:04.141Z,6.50
2023-08-17T08:34:31.583Z,6.90
2023-08-17T08:36:59.031Z,6.40
2023-08-17T08:39:29.406Z,6.50
2023-08-17T08:41:56.518Z,6.30
2023-08-17T08:44:24.225Z,6.20
2023-08-17T08:46:51.697Z,6.50
2023-08-17T08:49:22.536Z,6.30
2023-08-17T08:51:52.649Z,6.20
2023-08-17T08:54:25.808Z,6.20
2023-08-17T08:57:02.663Z,6.40
2023-08-17T08:59:30.085Z,6.60
2023-08-17T09:01:59.360Z,6.30
2023-08-17T09:04:27.463Z,6.00
2023-08-17T09:06:55.740Z,5.70
2023-08-17T09:09:29.625Z,6.40
2023-08-17T09:11:59.695Z,6.00
2023-08-17T09:14:29.803Z,6.30
2023-08-17T09:17:00.292Z,7.00
2023-08-17T09:19:27.456Z,6.60
2023-08-17T09:21:54.717Z,6.30
2023-08-17T09:24:21.815Z,6.40
2023-08-17T09:26:50.885Z,6.00
2023-08-17T09:29:20.334Z,6.50
2023-08-17T09:31:48.257Z,6.00
2023-08-17T09:34:18.333Z,6.30
2023-08-17T09:36:48.556Z,6.10
2023-08-17T09:39:19.378Z,6.30
2023-08-17T09:41:46.756Z,6.40
2023-08-17T09:44:13.909Z,6.10
2023-08-17T09:46:44.717Z,6.10
2023-08-17T09:49:12.331Z,6.20
2023-08-17T09:51:43.108Z,6.50
2023-08-17T09:54:22.234Z,5.70
2023-08-17T09:56:53.842Z,6.00
2023-08-17T09:59:22.188Z,5.80
2023-08-17T10:01:56.687Z,6.10
2023-08-17T10:04:25.176Z,6.10
2023-08-17T10:07:01.490Z,6.80
2023-08-17T10:09:36.458Z,6.20
2023-08-17T10:12:11.330Z,6.00
2023-08-17T10:14:47.835Z,6.10
2023-08-17T10:17:20.707Z,6.80
2023-08-17T10:19:53.558Z,6.50
2023-08-17T10:22:25.313Z,6.40
2023-08-17T10:24:57.463Z,5.80
2023-08-17T10:27:24.877Z,6.20
2023-08-17T10:29:52.489Z,6.20
2023-08-17T10:32:27.551Z,6.40
2023-08-17T10:34:55.746Z,6.00
2023-08-17T10:37:28.634Z,5.70
2023-08-17T10:39:59.227Z,6.30
2023-08-17T10:42:37.920Z,6.70
2023-08-17T10:45:32.780Z,6.60
2023-08-17T10:48:10.158Z,5.70
2023-08-17T10:50:43.623Z,6.50
2023-08-17T10:53:14.237Z,6.00
2023-08-17T10:55:53.282Z,6.20
2023-08-17T10:58:26.114Z,6.40
2023-08-17T11:00:58.570Z,6.30
2023-08-17T11:03:30.402Z,5.50
2023-08-17T11:05:59.086Z,6.20
2023-08-17T11:08:33.833Z,6.30
2023-08-17T11:11:14.975Z,6.50
2023-08-17T11:13:46.155Z,6.40
2023-08-17T11:16:18.724Z,5.80
2023-08-17T11:18:46.933Z,5.60
2023-08-17T11:21:24.566Z,5.90
2023-08-17T11:23:52.611Z,6.50
2023-08-17T11:26:20.621Z,5.90
2023-08-17T11:28:51.067Z,6.10
2023-08-17T11:31:19.898Z,5.70
2023-08-17T11:33:48.654Z,6.20
2023-08-17T11:36:27.313Z,6.20
2023-08-17T11:38:54.670Z,5.90
2023-08-17T11:41:24.271Z,6.40
2023-08-17T11:43:56.051Z,5.60
2023-08-17T11:46:28.961Z,5.90
2023-08-17T11:49:00.866Z,6.60
2023-08-17T11:51:34.676Z,5.70
2023-08-17T11:54:05.119Z,6.50
2023-08-17T11:56:32.434Z,5.70
2023-08-17T11:59:00.087Z,5.80
2023-08-17T12:01:28.598Z,5.70
2023-08-17T12:03:56.580Z,5.60
2023-08-17T12:06:23.819Z,5.90
2023-08-17T12:08:51.796Z,6.00
2023-08-17T12:11:19.831Z,5.70
2023-08-17T12:14:01.039Z,6.40
2023-08-17T12:16:28.046Z,5.90
2023-08-17T12:18:55.939Z,6.10
2023-08-17T12:21:24.764Z,6.40
2023-08-17T12:23:54.488Z,6.60
2023-08-17T12:26:24.674Z,6.90
2023-08-17T12:28:51.786Z,8.30
2023-08-17T12:31:25.091Z,9.90
2023-08-17T12:33:53.060Z,10.60
2023-08-17T12:36:21.890Z,11.20
2023-08-17T12:38:49.840Z,12.10
2023-08-17T12:41:17.493Z,12.40
2023-08-17T12:43:45.545Z,11.60
2023-08-17T12:46:14.016Z,11.80
2023-08-17T12:48:41.516Z,11.30
2023-08-17T12:51:09.710Z,11.00
2023-08-17T12:53:38.284Z,10.60
2023-08-17T12:56:05.411Z,10.20
2023-08-17T12:58:32.517Z,9.90
2023-08-17T13:00:59.652Z,9.60
2023-08-17T13:03:26.732Z,10.30
2023-08-17T13:05:53.945Z,9.70
2023-08-17T13:08:21.092Z,9.20
2023-08-17T13:10:48.124Z,8.70
2023-08-17T13:13:15.906Z,8.50
2023-08-17T13:15:43.346Z,8.20
2023-08-17T13:18:10.642Z,8.00
2023-08-17T13:20:39.024Z,8.40
2023-08-17T13:23:06.473Z,8.00
2023-08-17T13:25:33.897Z,7.30
2023-08-17T13:28:01.035Z,8.30
2023-08-17T13:30:28.996Z,7.50
2023-08-17T13:32:59.580Z,6.70
2023-08-17T13:35:28.830Z,7.10
2023-08-17T13:37:56.157Z,7.00
2023-08-17T13:40:26.725Z,6.60
2023-08-17T13:42:54.746Z,6.60
2023-08-17T13:45:22.200Z,6.60
2023-08-17T13:47:49.998Z,6.40
2023-08-17T13:50:17.234Z,6.50
2023-08-17T13:52:44.230Z,6.10
2023-08-17T13:55:11.559Z,6.60
2023-08-17T13:57:38.573Z,6.10
2023-08-17T14:00:06.678Z,6.70
2023-08-17T14:02:34.636Z,6.10
2023-08-17T14:05:03.090Z,6.40
2023-08-17T14:07:31.900Z,5.80
2023-08-17T14:10:08.129Z,5.90
2023-08-17T14:12:45.979Z,5.50
2023-08-17T14:15:13.833Z,5.90
2023-08-17T14:17:41.546Z,5.90
2023-08-17T14:20:09.855Z,6.00
2023-08-17T14:22:37.467Z,5.90
2023-08-17T14:25:08.923Z,6.40
2023-08-17T14:27:36.941Z,6.20
2023-08-17T14:30:07.374Z,5.70
2023-08-17T14:32:35.551Z,5.80
2023-08-17T14:35:03.124Z,6.00
2023-08-17T14:37:30.476Z,6.50
2023-08-17T14:39:58.155Z,6.00
2023-08-17T14:42:25.841Z,5.80
2023-08-17T14:44:53.155Z,6.20
2023-08-17T14:47:21.700Z,5.90
2023-08-17T14:49:48.934Z,5.70
2023-08-17T14:52:16.251Z,5.90
2023-08-17T14:54:43.712Z,6.30
2023-08-17T14:57:10.858Z,5.80
2023-08-17T14:59:39.329Z,5.50
2023-08-17T15:02:06.346Z,5.60
2023-08-17T15:04:34.500Z,6.20
2023-08-17T15:07:02.736Z,5.40
2023-08-17T15:09:30.870Z,5.40
2023-08-17T15:11:58.859Z,5.20
2023-08-17T15:14:26.177Z,5.60
2023-08-17T15:16:53.805Z,6.30
2023-08-17T15:19:34.551Z,5.70
2023-08-17T15:22:07.334Z,6.00
2023-08-17T15:24:34.770Z,5.70
2023-08-17T15:27:01.859Z,5.30
2023-08-17T15:29:29.001Z,6.10
2023-08-17T15:31:57.780Z,5.40
2023-08-17T15:34:24.928Z,5.40
2023-08-17T15:36:51.980Z,5.30
2023-08-17T15:39:19.550Z,5.70
2023-08-17T15:41:47.386Z,5.90
2023-08-17T15:44:14.452Z,5.80
2023-08-17T15:46:41.632Z,5.20
2023-08-17T15:49:08.868Z,6.00
2023-08-17T15:51:36.015Z,5.50
2023-08-17T15:54:03.174Z,5.70
2023-08-17T15:56:31.275Z,5.90
2023-08-17T15:58:58.358Z,5.60
2023-08-17T16:01:25.373Z,5.10
2023-08-17T16:03:53.027Z,5.60
2023-08-17T16:06:24.335Z,5.00
2023-08-17T16:08:53.233Z,5.50
2023-08-17T16:11:20.578Z,5.30
2023-08-17T16:13:47.583Z,5.30
2023-08-17T16:16:14.773Z,5.20
2023-08-17T16:18:42.482Z,5.30
2023-08-17T16:23:39.671Z,4.80
2023-08-17T16:26:06.871Z,4.70
2023-08-17T16:28:33.904Z,5.30
2023-08-17T16:31:04.674Z,5.10
2023-08-17T16:33:32.140Z,5.20
2023-08-17T16:35:59.207Z,4.80
2023-08-17T16:38:26.255Z,5.50
2023-08-17T16:40:53.299Z,5.30
2023-08-17T16:43:23.165Z,5.20
2023-08-17T16:45:54.376Z,5.20
2023-08-17T16:48:25.328Z,4.90
2023-08-17T16:50:56.701Z,4.80
2023-08-17T16:53:24.601Z,4.90
2023-08-17T16:55:55.594Z,5.20
2023-08-17T16:58:23.359Z,4.80
2023-08-17T17:00:50.505Z,5.00
2023-08-17T17:03:17.670Z,5.20
2023-08-17T17:05:44.776Z,5.00
2023-08-17T17:08:11.928Z,5.00
2023-08-17T17:10:41.436Z,5.70
2023-08-17T17:13:09.401Z,5.20
2023-08-17T17:15:38.354Z,4.80
2023-08-17T17:18:05.956Z,4.70
2023-08-17T17:20:33.197Z,5.00
2023-08-17T17:23:02.554Z,5.00
2023-08-17T17:25:29.631Z,4.80
2023-08-17T17:27:56.738Z,5.30
2023-08-17T17:30:30.139Z,4.80
2023-08-17T17:32:57.194Z,4.70
2023-08-17T17:35:25.053Z,5.50
2023-08-17T17:37:52.622Z,5.10
2023-08-17T17:40:20.139Z,5.10
2023-08-17T17:42:47.116Z,7.20
2023-08-17T17:45:15.418Z,7.70
2023-08-17T17:47:47.839Z,9.00
2023-08-17T17:50:16.712Z,10.40
2023-08-17T17:52:46.136Z,10.60
2023-08-17T17:55:14.702Z,10.70
2023-08-17T17:57:43.035Z,10.40
2023-08-17T18:00:14.722Z,9.10
2023-08-17T18:02:43.174Z,8.60
2023-08-17T18:05:12.407Z,8.30
2023-08-17T18:07:40.839Z,8.20
2023-08-17T18:10:08.890Z,7.60
2023-08-17T18:12:35.903Z,8.50
2023-08-17T18:15:03.742Z,7.70
2023-08-17T18:17:33.804Z,8.70
2023-08-17T18:20:01.206Z,8.50
2023-08-17T18:22:28.312Z,8.10
2023-08-17T18:24:56.570Z,8.20
2023-08-17T18:27:25.187Z,7.80
2023-08-17T18:29:53.646Z,7.40
2023-08-17T18:32:21.045Z,7.30
2023-08-17T18:34:53.940Z,7.90
2023-08-17T18:37:21.589Z,7.50
2023-08-17T18:39:49.250Z,7.90
2023-08-17T18:42:18.495Z,7.40
2023-08-17T18:44:47.031Z,7.50
2023-08-17T18:47:18.082Z,7.10
2023-08-17T18:49:45.485Z,7.50
2023-08-17T18:52:12.985Z,7.50
2023-08-17T18:54:40.176Z,7.30
2023-08-17T18:57:08.216Z,7.20
2023-08-17T18:59:35.457Z,7.00
2023-08-17T19:02:02.955Z,6.80
2023-08-17T19:04:30.540Z,6.70
2023-08-17T19:06:57.726Z,7.00
2023-08-17T19:09:25.282Z,7.20
2023-08-17T19:11:52.751Z,7.60
2023-08-17T19:14:20.202Z,6.70
2023-08-17T19:16:47.311Z,7.20
2023-08-17T19:19:14.834Z,6.30
2023-08-17T19:21:42.517Z,7.00
2023-08-17T19:24:10.025Z,7.20
2023-08-17T19:26:37.674Z,6.50
2023-08-17T19:29:05.078Z,6.50
2023-08-17T19:31:33.861Z,6.30
2023-08-17T19:34:02.058Z,6.40
2023-08-17T19:36:29.127Z,6.40
2023-08-17T19:38:56.562Z,6.70
2023-08-17T19:41:23.771Z,6.90
2023-08-17T19:43:51.708Z,6.60
2023-08-17T19:46:18.955Z,6.20
2023-08-17T19:48:46.119Z,6.10
2023-08-17T19:51:13.644Z,5.70
2023-08-17T19:53:40.732Z,5.90
2023-08-17T19:56:10.271Z,6.40
2023-08-17T19:58:38.720Z,5.90
2023-08-17T20:01:08.114Z,6.10
2023-08-17T20:03:35.982Z,6.00
2023-08-17T20:06:03.925Z,6.30
2023-08-17T20:08:31.114Z,6.20
2023-08-17T20:10:58.226Z,6.00
2023-08-17T20:13:25.630Z,6.10
2023-08-17T20:15:56.343Z,6.10
2023-08-17T20:18:24.021Z,5.90
2023-08-17T20:20:57.297Z,5.80
2023-08-17T20:23:25.619Z,5.60
2023-08-17T20:25:55.539Z,6.10
2023-08-17T20:28:24.821Z,6.60
2023-08-17T20:30:59.983Z,6.00
2023-08-17T20:33:29.019Z,5.60
2023-08-17T20:35:56.237Z,5.80
2023-08-17T20:38:24.167Z,6.30
2023-08-17T20:40:52.274Z,6.20
2023-08-17T20:43:20.021Z,6.00
2023-08-17T20:45:47.448Z,6.20
2023-08-17T20:48:15.556Z,6.50
2023-08-17T20:50:47.760Z,7.30
2023-08-17T20:53:16.332Z,7.60
2023-08-17T20:55:44.565Z,8.50
2023-08-17T20:58:11.985Z,7.90
2023-08-17T21:00:39.212Z,8.40
2023-08-17T21:03:07.310Z,9.00
2023-08-17T21:05:34.706Z,8.60
2023-08-17T21:08:03.288Z,8.90
2023-08-17T21:10:31.023Z,10.50
2023-08-17T21:12:58.901Z,11.60
2023-08-17T21:15:25.986Z,11.20
2023-08-17T21:17:53.121Z,10.40
2023-08-17T21:20:20.195Z,9.90
2023-08-17T21:22:51.392Z,9.80
2023-08-17T21:25:20.208Z,9.60
2023-08-17T21:27:48.261Z,8.80
2023-08-17T21:30:16.772Z,9.20
2023-08-17T21:32:44.394Z,8.70
2023-08-17T21:35:13.159Z,9.00
2023-08-17T21:37:44.296Z,8.60
2023-08-17T21:40:13.171Z,8.40
2023-08-17T21:42:40.329Z,8.40
2023-08-17T21:45:08.440Z,8.20
2023-08-17T21:47:35.547Z,8.40
2023-08-17T21:50:03.334Z,7.80
2023-08-17T21:52:30.784Z,7.70
2023-08-17T21:54:58.139Z,8.10
2023-08-17T21:57:25.164Z,7.40
2023-08-17T21:59:53.329Z,8.00
2023-08-17T22:02:21.111Z,7.90
2023-08-17T22:04:48.651Z,8.10
2023-08-17T22:07:16.341Z,8.20
2023-08-17T22:09:43.770Z,7.70
2023-08-17T22:12:10.778Z,7.50
2023-08-17T22:14:38.505Z,7.30
2023-08-17T22:17:05.569Z,7.40
2023-08-17T22:19:33.532Z,8.00
2023-08-17T22:22:00.523Z,7.60
2023-08-17T22:24:34.784Z,7.20
2023-08-17T22:27:08.494Z,7.10
2023-08-17T22:29:35.556Z,8.00
2023-08-17T22:32:03.160Z,7.70
2023-08-17T22:34:30.480Z,7.60
2023-08-17T22:36:57.486Z,6.60
2023-08-17T22:39:24.954Z,7.30
2023-08-17T22:41:53.641Z,7.50
2023-08-17T22:44:20.682Z,7.10
2023-08-17T22:46:48.382Z,6.70
2023-08-17T22:49:15.742Z,6.60
2023-08-17T22:51:42.959Z,6.50
2023-08-17T22:54:10.402Z,7.00
2023-08-17T22:56:38.536Z,7.70
2023-08-17T22:59:07.257Z,6.60
2023-08-17T23:01:34.593Z,6.90
2023-08-17T23:04:02.387Z,7.20
2023-08-17T23:06:30.535Z,6.60
2023-08-17T23:08:57.509Z,7.00
2023-08-17T23:11:24.667Z,6.80
2023-08-17T23:13:51.820Z,6.80
2023-08-17T23:16:18.921Z,6.30
2023-08-17T23:18:46.175Z,6.60
2023-08-17T23:21:13.682Z,6.70
2023-08-17T23:23:40.764Z,6.60
2023-08-17T23:26:08.362Z,6.80
2023-08-17T23:28:35.632Z,6.20
2023-08-17T23:31:03.073Z,6.70
2023-08-17T23:33:30.805Z,6.50
2023-08-17T23:35:58.081Z,6.30
2023-08-17T23:38:25.384Z,6.30
2023-08-17T23:40:52.954Z,6.40
2023-08-17T23:43:20.718Z,6.40
2023-08-17T23:45:47.833Z,6.50
2023-08-17T23:48:14.907Z,6.90
2023-08-17T23:50:42.863Z,6.20
2023-08-17T23:53:09.952Z,5.60
2023-08-17T23:55:37.091Z,6.80
2023-08-17T23:58:06.114Z,6.10
